createdAt,value
2019-04-25T00:00:07.481Z,10.30
2019-04-25T00:02:42.715Z,10.40
2019-04-25T00:05:15.731Z,10.50
2019-04-25T00:07:47.118Z,10.60
2019-04-25T00:10:18.838Z,10.70
2019-04-25T00:12:51.775Z,10.70
2019-04-25T00:15:23.262Z,10.80
2019-04-25T00:17:54.579Z,10.80
2019-04-25T00:20:26.577Z,10.80
2019-04-25T00:23:03.972Z,10.80
2019-04-25T00:25:53.557Z,10.80
2019-04-25T00:28:25.551Z,10.70
2019-04-25T00:30:57.294Z,10.70
2019-04-25T00:33:28.652Z,10.70
2019-04-25T00:36:02.112Z,10.70
2019-04-25T00:38:33.549Z,10.80
2019-04-25T00:41:05.016Z,10.80
2019-04-25T00:43:36.562Z,10.90
2019-04-25T00:46:08.954Z,10.90
2019-04-25T00:48:42.374Z,10.90
2019-04-25T00:51:15.044Z,10.90
2019-04-25T00:53:46.760Z,10.90
2019-04-25T00:56:18.354Z,10.90
2019-04-25T00:59:09.291Z,10.90
2019-04-25T01:01:58.215Z,10.90
2019-04-25T01:04:33.658Z,10.90
2019-04-25T01:07:05.338Z,10.80
2019-04-25T01:09:36.584Z,10.80
2019-04-25T01:12:11.584Z,10.90
2019-04-25T01:14:43.202Z,10.90
2019-04-25T01:17:14.611Z,11.00
2019-04-25T01:19:46.793Z,11.00
2019-04-25T01:22:18.442Z,11.00
2019-04-25T01:24:49.789Z,10.90
2019-04-25T01:27:21.445Z,10.90
2019-04-25T01:29:54.447Z,10.90
2019-04-25T01:32:36.313Z,10.90
2019-04-25T01:35:24.165Z,11.00
2019-04-25T01:38:20.317Z,11.00
2019-04-25T01:41:16.781Z,11.00
2019-04-25T01:44:19.333Z,11.00
2019-04-25T01:46:51.865Z,11.10
2019-04-25T01:49:23.906Z,11.00
2019-04-25T01:51:57.423Z,11.00
2019-04-25T01:54:29.247Z,10.90
2019-04-25T01:57:00.955Z,10.90
2019-04-25T01:59:33.835Z,10.80
2019-04-25T02:02:07.215Z,10.80
2019-04-25T02:04:38.697Z,10.80
2019-04-25T02:07:10.556Z,10.70
2019-04-25T02:09:43.779Z,10.60
2019-04-25T02:12:21.287Z,10.50
2019-04-25T02:14:54.669Z,10.40
2019-04-25T02:17:26.207Z,10.40
2019-04-25T02:19:57.900Z,10.30
2019-04-25T02:22:30.883Z,10.20
2019-04-25T02:25:04.349Z,10.20
2019-04-25T02:27:35.662Z,10.10
2019-04-25T02:30:08.726Z,10.10
2019-04-25T02:32:40.343Z,10.00
2019-04-25T02:35:14.211Z,9.90
2019-04-25T02:37:45.252Z,9.90
2019-04-25T02:40:20.256Z,9.80
2019-04-25T02:42:54.200Z,9.80
2019-04-25T02:45:44.215Z,9.90
2019-04-25T02:48:34.326Z,9.90
2019-04-25T02:51:14.464Z,10.00
2019-04-25T02:53:47.406Z,10.10
2019-04-25T02:56:29.872Z,10.20
2019-04-25T02:58:54.137Z,10.30
2019-04-25T03:01:26.394Z,10.40
2019-04-25T03:03:59.278Z,10.40
2019-04-25T03:06:31.457Z,10.40
2019-04-25T03:09:06.044Z,10.50
2019-04-25T03:11:37.880Z,10.60
2019-04-25T03:14:10.207Z,10.60
2019-04-25T03:16:44.810Z,10.70
2019-04-25T03:19:34.808Z,10.80
2019-04-25T03:22:11.067Z,10.90
2019-04-25T03:24:41.333Z,11.00
2019-04-25T03:27:14.181Z,11.10
2019-04-25T03:29:47.242Z,11.20
2019-04-25T03:32:19.934Z,11.30
2019-04-25T03:34:53.145Z,11.40
2019-04-25T03:37:26.977Z,11.40
2019-04-25T03:39:58.784Z,11.50
2019-04-25T03:42:30.487Z,11.50
2019-04-25T03:45:03.266Z,11.50
2019-04-25T03:47:35.037Z,11.50
2019-04-25T03:50:08.119Z,11.50
2019-04-25T03:52:40.033Z,11.60
2019-04-25T03:55:12.334Z,11.60
2019-04-25T03:57:44.411Z,11.50
2019-04-25T04:00:16.585Z,11.60
2019-04-25T04:02:49.081Z,11.60
2019-04-25T04:05:20.529Z,11.60
2019-04-25T04:07:53.472Z,11.70
2019-04-25T04:10:24.844Z,11.60
2019-04-25T04:12:56.617Z,11.70
2019-04-25T04:15:28.045Z,11.70
2019-04-25T04:18:36.857Z,11.80
2019-04-25T04:21:43.218Z,11.80
2019-04-25T04:24:25.883Z,11.90
2019-04-25T04:27:18.183Z,11.90
2019-04-25T04:29:51.037Z,12.00
2019-04-25T04:32:24.116Z,12.00
2019-04-25T04:34:55.836Z,12.00
2019-04-25T04:37:27.462Z,12.10
2019-04-25T04:39:58.949Z,12.20
2019-04-25T04:42:30.631Z,12.20
2019-04-25T04:45:03.613Z,12.10
2019-04-25T04:47:35.057Z,12.10
2019-04-25T04:50:06.531Z,12.20
2019-04-25T04:52:39.876Z,12.10
2019-04-25T04:55:15.522Z,12.20
2019-04-25T04:57:45.994Z,12.20
2019-04-25T05:00:18.615Z,12.30
2019-04-25T05:02:59.430Z,12.20
2019-04-25T05:05:44.648Z,12.30
2019-04-25T05:08:29.938Z,12.30
2019-04-25T05:11:01.997Z,12.30
2019-04-25T05:13:34.787Z,12.30
2019-04-25T05:16:06.502Z,12.30
2019-04-25T05:18:40.077Z,12.30
2019-04-25T05:21:14.847Z,12.40
2019-04-25T05:23:46.432Z,12.40
2019-04-25T05:26:17.692Z,12.40
2019-04-25T05:28:49.035Z,12.40
2019-04-25T05:31:34.200Z,12.40
2019-04-25T05:34:06.847Z,12.40
2019-04-25T05:36:38.267Z,12.40
2019-04-25T05:39:10.914Z,12.40
2019-04-25T05:42:00.677Z,12.50
2019-04-25T05:44:34.340Z,12.50
2019-04-25T05:47:06.094Z,12.50
2019-04-25T05:49:37.547Z,12.50
2019-04-25T05:52:10.264Z,12.40
2019-04-25T05:54:44.268Z,12.30
2019-04-25T05:57:16.591Z,12.30
2019-04-25T05:59:48.062Z,12.30
2019-04-25T06:02:19.553Z,12.30
2019-04-25T06:04:51.094Z,12.40
2019-04-25T06:07:25.493Z,12.40
2019-04-25T06:10:21.653Z,12.50
2019-04-25T06:13:28.675Z,12.50
2019-04-25T06:16:04.785Z,12.50
2019-04-25T06:18:51.435Z,12.50
2019-04-25T06:21:23.570Z,12.50
2019-04-25T06:24:19.204Z,12.60
2019-04-25T06:27:00.012Z,12.60
2019-04-25T06:29:33.605Z,12.70
2019-04-25T06:32:08.437Z,12.70
2019-04-25T06:34:38.754Z,12.70
2019-04-25T06:37:13.767Z,12.70
2019-04-25T06:39:45.463Z,12.70
2019-04-25T06:42:18.421Z,12.60
2019-04-25T06:44:56.931Z,12.70
2019-04-25T06:47:39.839Z,12.80
2019-04-25T06:50:13.671Z,12.80
2019-04-25T06:52:46.149Z,12.70
2019-04-25T06:55:17.526Z,12.80
2019-04-25T06:57:49.217Z,12.70
2019-04-25T07:00:24.265Z,12.70
2019-04-25T07:02:56.701Z,12.70
2019-04-25T07:05:33.923Z,12.60
2019-04-25T07:08:03.196Z,12.60
2019-04-25T07:10:34.984Z,12.60
2019-04-25T07:13:06.717Z,12.60
2019-04-25T07:15:38.556Z,12.70
2019-04-25T07:18:10.356Z,12.70
2019-04-25T07:20:43.207Z,12.80
2019-04-25T07:23:15.331Z,12.80
2019-04-25T07:25:56.230Z,12.90
2019-04-25T07:28:46.668Z,13.00
2019-04-25T07:31:37.050Z,13.20
2019-04-25T07:34:15.364Z,13.30
2019-04-25T07:36:46.883Z,13.40
2019-04-25T07:39:18.508Z,13.50
2019-04-25T07:41:50.426Z,13.60
2019-04-25T07:44:36.665Z,13.80
2019-04-25T07:46:56.363Z,13.90
2019-04-25T07:49:28.569Z,14.00
2019-04-25T07:52:00.305Z,14.20
2019-04-25T07:54:31.840Z,14.30
2019-04-25T07:57:04.140Z,14.30
2019-04-25T07:59:36.371Z,14.40
2019-04-25T08:02:09.418Z,14.40
2019-04-25T08:04:40.980Z,14.60
2019-04-25T08:07:14.153Z,14.50
2019-04-25T08:09:47.984Z,14.50
2019-04-25T08:12:19.417Z,14.60
2019-04-25T08:14:59.741Z,14.70
2019-04-25T08:17:49.449Z,14.70
2019-04-25T08:20:21.624Z,14.90
2019-04-25T08:22:58.423Z,15.40
2019-04-25T08:25:28.485Z,15.70
2019-04-25T08:28:01.225Z,15.90
2019-04-25T08:30:34.981Z,15.90
2019-04-25T08:33:06.070Z,15.90
2019-04-25T08:35:38.899Z,15.90
2019-04-25T08:38:10.439Z,15.70
2019-04-25T08:40:43.977Z,15.50
2019-04-25T08:43:15.459Z,15.40
2019-04-25T08:45:47.608Z,15.30
2019-04-25T08:48:21.514Z,15.30
2019-04-25T08:51:03.676Z,15.40
2019-04-25T08:53:44.102Z,15.40
2019-04-25T08:56:19.729Z,15.50
2019-04-25T08:59:14.843Z,15.50
2019-04-25T09:01:53.622Z,15.60
2019-04-25T09:04:46.219Z,15.60
2019-04-25T09:07:18.250Z,15.60
2019-04-25T09:09:49.914Z,15.60
2019-04-25T09:12:23.924Z,15.70
2019-04-25T09:14:55.733Z,15.90
2019-04-25T09:17:27.458Z,16.00
2019-04-25T09:20:00.193Z,16.00
2019-04-25T09:22:32.105Z,16.00
2019-04-25T09:25:05.247Z,16.10
2019-04-25T09:27:39.729Z,16.10
2019-04-25T09:30:11.775Z,16.00
2019-04-25T09:32:44.597Z,16.10
2019-04-25T09:35:16.838Z,16.00
2019-04-25T09:37:48.926Z,16.00
2019-04-25T09:40:21.150Z,16.00
2019-04-25T09:42:53.753Z,16.00
2019-04-25T09:45:41.554Z,16.10
2019-04-25T09:48:31.704Z,16.10
2019-04-25T09:51:33.441Z,16.10
2019-04-25T09:54:29.083Z,16.10
2019-04-25T09:57:11.204Z,16.20
2019-04-25T09:59:43.994Z,16.20
2019-04-25T10:02:16.448Z,16.10
2019-04-25T10:04:48.283Z,16.20
2019-04-25T10:07:20.400Z,16.20
2019-04-25T10:09:54.484Z,16.40
2019-04-25T10:12:25.866Z,16.50
2019-04-25T10:15:07.130Z,16.60
2019-04-25T10:17:39.365Z,16.80
2019-04-25T10:20:14.576Z,16.90
2019-04-25T10:22:46.615Z,16.80
2019-04-25T10:25:18.910Z,16.70
2019-04-25T10:27:51.970Z,16.60
2019-04-25T10:30:25.988Z,16.40
2019-04-25T10:32:57.802Z,16.20
2019-04-25T10:35:29.420Z,16.20
2019-04-25T10:38:03.529Z,16.20
2019-04-25T10:40:35.977Z,16.20
2019-04-25T10:43:09.132Z,16.20
2019-04-25T10:45:42.284Z,16.10
2019-04-25T10:48:14.657Z,16.10
2019-04-25T10:50:47.433Z,16.20
2019-04-25T10:53:20.143Z,16.40
2019-04-25T10:55:52.334Z,16.40
2019-04-25T10:58:25.118Z,16.40
2019-04-25T11:00:57.484Z,16.40
2019-04-25T11:04:01.995Z,16.40
2019-04-25T11:06:33.730Z,16.40
2019-04-25T11:09:08.701Z,16.40
2019-04-25T11:11:41.567Z,16.30
2019-04-25T11:14:13.497Z,16.20
2019-04-25T11:16:45.544Z,16.20
2019-04-25T11:19:17.931Z,16.20
2019-04-25T11:21:51.765Z,16.30
2019-04-25T11:24:23.862Z,16.40
2019-04-25T11:26:55.411Z,16.50
2019-04-25T11:29:28.335Z,16.80
2019-04-25T11:32:00.203Z,16.90
2019-04-25T11:34:31.903Z,16.90
2019-04-25T11:37:05.810Z,16.80
2019-04-25T11:39:50.265Z,16.70
2019-04-25T11:42:24.155Z,16.80
2019-04-25T11:44:55.919Z,16.90
2019-04-25T11:47:28.670Z,16.90
2019-04-25T11:50:00.659Z,17.10
2019-04-25T11:52:33.630Z,17.40
2019-04-25T11:55:07.511Z,17.40
2019-04-25T11:57:39.417Z,17.10
2019-04-25T12:00:21.497Z,16.80
2019-04-25T12:02:45.430Z,16.60
2019-04-25T12:05:18.782Z,16.40
2019-04-25T12:07:51.376Z,16.40
2019-04-25T12:10:24.604Z,16.20
2019-04-25T12:12:57.811Z,16.00
2019-04-25T12:15:29.849Z,15.90
2019-04-25T12:18:01.517Z,16.00
2019-04-25T12:20:34.025Z,15.80
2019-04-25T12:23:10.431Z,15.80
2019-04-25T12:25:41.973Z,15.70
2019-04-25T12:28:14.209Z,15.70
2019-04-25T12:30:46.189Z,15.40
2019-04-25T12:33:21.489Z,14.70
2019-04-25T12:35:53.794Z,13.70
2019-04-25T12:38:25.614Z,13.20
2019-04-25T12:40:57.432Z,13.00
2019-04-25T12:43:33.532Z,13.00
2019-04-25T12:46:11.216Z,13.10
2019-04-25T12:48:45.899Z,13.20
2019-04-25T12:51:19.129Z,13.30
2019-04-25T12:53:51.311Z,13.40
2019-04-25T12:56:24.837Z,13.50
2019-04-25T12:58:56.298Z,13.60
2019-04-25T13:01:28.069Z,13.60
2019-04-25T13:03:59.999Z,13.70
2019-04-25T13:06:31.476Z,13.50
2019-04-25T13:09:04.291Z,13.10
2019-04-25T13:11:37.556Z,12.70
2019-04-25T13:14:10.973Z,12.40
2019-04-25T13:16:44.319Z,12.30
2019-04-25T13:19:23.808Z,12.10
2019-04-25T13:21:49.926Z,12.10
2019-04-25T13:24:21.868Z,12.10
2019-04-25T13:27:01.521Z,12.10
2019-04-25T13:29:54.994Z,12.10
2019-04-25T13:32:46.896Z,12.20
2019-04-25T13:35:23.487Z,12.30
2019-04-25T13:37:55.604Z,12.40
2019-04-25T13:40:27.254Z,12.40
2019-04-25T13:42:58.928Z,12.50
2019-04-25T13:45:31.316Z,12.60
2019-04-25T13:48:04.903Z,12.60
2019-04-25T13:50:36.695Z,12.70
2019-04-25T13:53:08.276Z,12.70
2019-04-25T13:55:42.020Z,12.70
2019-04-25T13:58:14.525Z,12.70
2019-04-25T14:00:47.319Z,12.70
2019-04-25T14:03:19.277Z,12.60
2019-04-25T14:05:53.990Z,12.70
2019-04-25T14:08:26.966Z,12.80
2019-04-25T14:10:58.623Z,12.90
2019-04-25T14:13:32.197Z,12.90
2019-04-25T14:16:28.773Z,13.00
2019-04-25T14:19:27.845Z,13.10
2019-04-25T14:22:01.626Z,13.10
2019-04-25T14:24:35.732Z,13.10
2019-04-25T14:27:06.738Z,13.10
2019-04-25T14:29:39.874Z,13.10
2019-04-25T14:32:12.940Z,13.10
2019-04-25T14:34:44.771Z,13.30
2019-04-25T14:37:16.653Z,13.40
2019-04-25T14:39:51.896Z,13.50
2019-04-25T14:42:24.418Z,13.60
2019-04-25T14:44:56.685Z,13.60
2019-04-25T14:47:29.555Z,13.60
2019-04-25T14:50:02.226Z,13.60
2019-04-25T14:52:35.631Z,13.60
2019-04-25T14:55:22.522Z,13.60
2019-04-25T14:57:58.952Z,13.60
2019-04-25T15:00:40.749Z,13.40
2019-04-25T15:03:12.556Z,13.40
2019-04-25T15:05:44.105Z,13.30
2019-04-25T15:08:15.450Z,13.30
2019-04-25T15:10:48.520Z,13.20
2019-04-25T15:13:20.350Z,13.20
2019-04-25T15:15:51.804Z,13.20
2019-04-25T15:18:24.484Z,13.00
2019-04-25T15:20:56.482Z,12.90
2019-04-25T15:23:28.779Z,12.90
2019-04-25T15:26:02.336Z,12.80
2019-04-25T15:28:33.884Z,12.80
2019-04-25T15:31:05.826Z,12.80
2019-04-25T15:33:37.759Z,12.80
2019-04-25T15:36:38.477Z,12.80
2019-04-25T15:39:33.212Z,12.80
2019-04-25T15:42:14.942Z,12.80
2019-04-25T15:45:03.834Z,12.80
2019-04-25T15:47:36.179Z,12.90
2019-04-25T15:50:08.544Z,13.00
2019-04-25T15:52:40.282Z,13.00
2019-04-25T15:55:12.069Z,13.10
2019-04-25T15:57:44.590Z,13.10
2019-04-25T16:00:20.834Z,13.20
2019-04-25T16:02:53.880Z,13.10
2019-04-25T16:05:26.610Z,13.10
2019-04-25T16:08:00.689Z,13.20
2019-04-25T16:10:32.341Z,13.20
2019-04-25T16:13:05.460Z,13.10
2019-04-25T16:15:37.168Z,13.00
2019-04-25T16:18:09.655Z,12.90
2019-04-25T16:20:42.123Z,12.90
2019-04-25T16:23:13.385Z,12.80
2019-04-25T16:25:45.149Z,12.80
2019-04-25T16:28:16.435Z,12.80
2019-04-25T16:30:47.984Z,12.80
2019-04-25T16:33:19.558Z,12.80
2019-04-25T16:35:52.229Z,12.80
2019-04-25T16:38:24.259Z,12.80
2019-04-25T16:40:57.456Z,12.80
2019-04-25T16:43:33.410Z,12.80
2019-04-25T16:46:05.115Z,12.80
2019-04-25T16:48:37.345Z,12.80
2019-04-25T16:51:09.562Z,12.80
2019-04-25T16:53:43.790Z,12.70
2019-04-25T16:56:15.688Z,12.70
2019-04-25T16:58:47.257Z,12.60
2019-04-25T17:01:19.538Z,12.60
2019-04-25T17:03:52.053Z,12.60
2019-04-25T17:06:25.236Z,12.50
2019-04-25T17:08:58.009Z,12.50
2019-04-25T17:11:31.098Z,12.50
2019-04-25T17:14:21.683Z,12.40
2019-04-25T17:17:12.005Z,12.40
2019-04-25T17:19:51.871Z,12.40
2019-04-25T17:22:23.767Z,12.40
2019-04-25T17:24:55.853Z,12.40
2019-04-25T17:27:29.165Z,12.40
2019-04-25T17:30:01.566Z,12.40
2019-04-25T17:32:53.527Z,12.40
2019-04-25T17:35:29.117Z,12.40
2019-04-25T17:38:16.740Z,12.30
2019-04-25T17:40:48.686Z,12.20
2019-04-25T17:43:20.709Z,12.10
2019-04-25T17:45:52.510Z,12.10
2019-04-25T17:48:24.606Z,12.10
2019-04-25T17:50:58.875Z,12.00
2019-04-25T17:53:33.068Z,12.00
2019-04-25T17:56:04.664Z,12.00
2019-04-25T17:58:36.770Z,12.00
2019-04-25T18:01:12.849Z,11.90
2019-04-25T18:03:44.912Z,11.90
2019-04-25T18:06:16.998Z,11.80
2019-04-25T18:08:48.671Z,11.90
2019-04-25T18:11:20.466Z,11.80
2019-04-25T18:13:52.328Z,11.80
2019-04-25T18:16:32.566Z,11.80
2019-04-25T18:19:27.828Z,11.80
2019-04-25T18:22:04.638Z,11.80
2019-04-25T18:25:01.965Z,11.80
2019-04-25T18:27:42.625Z,11.70
2019-04-25T18:30:14.378Z,11.60
2019-04-25T18:32:53.499Z,11.60
2019-04-25T18:35:29.776Z,11.60
2019-04-25T18:38:17.888Z,11.60
2019-04-25T18:40:58.213Z,11.50
2019-04-25T18:43:42.683Z,11.40
2019-04-25T18:46:27.877Z,11.40
2019-04-25T18:49:00.687Z,11.40
2019-04-25T18:51:32.894Z,11.40
2019-04-25T18:54:37.444Z,11.40
2019-04-25T18:57:27.255Z,11.40
2019-04-25T19:00:20.967Z,11.30
2019-04-25T19:03:23.456Z,11.30
2019-04-25T19:06:15.303Z,11.30
2019-04-25T19:08:47.215Z,11.20
2019-04-25T19:11:19.461Z,11.20
2019-04-25T19:13:51.703Z,11.20
2019-04-25T19:16:23.973Z,11.10
2019-04-25T19:18:58.369Z,11.20
2019-04-25T19:21:30.269Z,11.10
2019-04-25T19:24:02.286Z,11.10
2019-04-25T19:26:35.478Z,11.00
2019-04-25T19:29:07.180Z,11.00
2019-04-25T19:31:39.849Z,11.00
2019-04-25T19:34:12.528Z,11.00
2019-04-25T19:36:44.847Z,10.90
2019-04-25T19:39:18.099Z,10.90
2019-04-25T19:42:08.608Z,10.90
2019-04-25T19:44:42.222Z,10.80
2019-04-25T19:47:14.940Z,10.80
2019-04-25T19:49:47.666Z,10.80
2019-04-25T19:52:19.326Z,10.80
2019-04-25T19:54:51.953Z,10.80
2019-04-25T19:57:24.386Z,10.80
2019-04-25T19:59:55.967Z,10.70
2019-04-25T20:02:48.704Z,10.70
2019-04-25T20:05:28.718Z,10.60
2019-04-25T20:08:07.374Z,10.60
2019-04-25T20:10:44.141Z,10.50
2019-04-25T20:13:16.710Z,10.50
2019-04-25T20:15:49.560Z,10.40
2019-04-25T20:18:21.006Z,10.40
2019-04-25T20:20:52.590Z,10.40
2019-04-25T20:23:24.214Z,10.40
2019-04-25T20:25:57.558Z,10.40
2019-04-25T20:28:28.926Z,10.50
2019-04-25T20:31:01.154Z,10.40
2019-04-25T20:33:33.515Z,10.40
2019-04-25T20:36:17.059Z,10.40
2019-04-25T20:38:38.705Z,10.40
2019-04-25T20:41:10.392Z,10.40
2019-04-25T20:43:42.166Z,10.30
2019-04-25T20:46:14.179Z,10.30
2019-04-25T20:48:46.870Z,10.30
2019-04-25T20:51:18.953Z,10.30
2019-04-25T20:53:50.935Z,10.30
2019-04-25T20:56:23.925Z,10.20
2019-04-25T20:58:55.623Z,10.20
2019-04-25T21:01:27.106Z,10.20
2019-04-25T21:03:59.387Z,10.20
2019-04-25T21:06:34.835Z,10.10
2019-04-25T21:09:07.566Z,10.20
2019-04-25T21:11:41.035Z,10.20
2019-04-25T21:14:50.685Z,10.20
2019-04-25T21:17:35.074Z,10.20
2019-04-25T21:20:07.230Z,10.20
2019-04-25T21:22:38.593Z,10.30
2019-04-25T21:25:10.448Z,10.30
2019-04-25T21:27:42.217Z,10.20
2019-04-25T21:30:13.992Z,10.30
2019-04-25T21:32:53.951Z,10.30
2019-04-25T21:35:26.893Z,10.20
2019-04-25T21:37:58.287Z,10.20
2019-04-25T21:40:36.396Z,10.20
2019-04-25T21:43:18.256Z,10.20
2019-04-25T21:45:50.118Z,10.10
2019-04-25T21:48:21.790Z,10.10
2019-04-25T21:50:54.083Z,10.10
2019-04-25T21:53:26.436Z,10.00
2019-04-25T21:55:59.577Z,9.90
2019-04-25T21:58:31.786Z,10.00
2019-04-25T22:01:17.785Z,9.90
2019-04-25T22:03:51.571Z,9.90
2019-04-25T22:06:23.154Z,9.90
2019-04-25T22:08:55.385Z,9.80
2019-04-25T22:11:27.788Z,9.70
2019-04-25T22:13:59.960Z,9.70
2019-04-25T22:16:32.800Z,9.70
2019-04-25T22:19:05.057Z,9.70
2019-04-25T22:21:38.956Z,9.70
2019-04-25T22:24:15.069Z,9.60
2019-04-25T22:26:44.749Z,9.60
2019-04-25T22:29:16.123Z,9.50
2019-04-25T22:32:15.636Z,9.50
2019-04-25T22:35:11.623Z,9.40
2019-04-25T22:37:43.027Z,9.30
2019-04-25T22:40:17.017Z,9.30
2019-04-25T22:42:48.675Z,9.20
2019-04-25T22:45:20.183Z,9.20
2019-04-25T22:47:51.805Z,9.10
2019-04-25T22:50:23.449Z,9.10
2019-04-25T22:52:55.177Z,9.00
2019-04-25T22:55:26.593Z,9.00
2019-04-25T22:57:58.393Z,8.90
2019-04-25T23:00:34.675Z,8.90
2019-04-25T23:03:12.456Z,8.80
2019-04-25T23:05:50.529Z,8.80
2019-04-25T23:08:22.267Z,8.70
2019-04-25T23:10:53.763Z,8.70
2019-04-25T23:13:27.565Z,8.60
2019-04-25T23:15:59.358Z,8.50
2019-04-25T23:18:30.828Z,8.30
2019-04-25T23:21:02.273Z,8.10
2019-04-25T23:23:34.218Z,8.10
2019-04-25T23:26:16.578Z,8.20
2019-04-25T23:28:48.672Z,8.30
2019-04-25T23:31:24.594Z,8.40
2019-04-25T23:33:56.791Z,8.50
2019-04-25T23:36:28.278Z,8.50
2019-04-25T23:39:00.141Z,8.50
2019-04-25T23:41:33.700Z,8.50
2019-04-25T23:44:07.005Z,8.50
2019-04-25T23:46:38.970Z,8.40
2019-04-25T23:49:12.658Z,8.50
2019-04-25T23:51:44.280Z,8.40
2019-04-25T23:54:15.851Z,8.30
2019-04-25T23:56:47.536Z,8.30
2019-04-25T23:59:19.514Z,8.20
